メインページ
METAR-TAF:

METAR-TAF

空港 :

ハバナ, キューバ

ホセ・マルティ国際空港

緯度: 22-59N, 経度: 082-24W, 海抜: 59m

現時点の気象観測

当レポートは31分前の15:55(UTC)に作成
東/北東の風 7kt、からの間で変化する
気温 28°C
湿度 70%
気圧 1014 hPa
視程: 9000m
高度2000ftの雲はほとんどない

METAR: MUHA 221555Z 06007KT 360V090 9000 FEW020 28/22 Q1014

時間: 11:26 (16:26 UTC)

予報

当レポートは5時間26分前の11:00(UTC)に作成
予報は22日の 12時(UTC)から 23日の 12時(UTC)まで有効
の風 4kt
視程: 9000m
高度2500ftの雲はほとんどない
22日の 19時(UTC)から 23日の 02時(UTC)まで一時的に
視程: 5000m
にわか雨

TAF: MUHA 221100Z 2212/2312 09004KT 9000 FEW025 TEMPO 2219/2302 5000 SHRA

4,000以上の空港の気象観測と天気予報(METAR報とTAF報)

利用可能な観測所は地図上に黄色い丸と赤い丸で示す。

丸の上にカーソルを重ねると観測所名を参照できる。

次にクリックすると気象観測と天気予報を参照できる。

マップの切り替え:黒色「×」印の緑ボタンをクリックして拡大、「-」印の緑ボタンをクリックして縮小、緑色の三角印をクリックして隣りの地図に切り替え


METAR-TAF: